^^
Saratoga-Weather Station Historical Data
Daily Summary for June 02, 2020 Units:  Metric    English   Both
Daily Weekly Monthly Yearly
  High: Low: Average:
Temperature: 28.8 °C 18.5 °C 22.6 °C
Dew Point: 15.2 °C 11.5 °C 13.1 °C
Humidity: 71.3% 35.2% 56%
Wind Speed: 18.2km/h 0km/h 6.3km/h
Wind Gust: 24.1km/h - -
Wind- - South
Pressure: 1014.4 hPa 1007.9 hPa -
Precipitation: 0.0 mm    
 
 
Tabular Data for June 02, 2020
Time Temperature Dew Point Pressure Wind Wind Speed Wind Gust Humidity Rainfall Rate (Hourly) solar
00:04 20.9 °C 11.8 °C 1014.4 hPa SSE 5.1 km/h 6.4 km/h 56% 0.0 mm 0 W/m2
00:09 21 °C 11.9 °C 1014.4 hPa SSE 3.9 km/h 4.8 km/h 56% 0.0 mm 0 W/m2
00:14 21 °C 11.7 °C 1014.4 hPa SSE 4.7 km/h 3.2 km/h 55.4% 0.0 mm 0 W/m2
00:19 21 °C 11.7 °C 1014.4 hPa SSE 4 km/h 4.8 km/h 55.2% 0.0 mm 0 W/m2
00:24 21 °C 11.7 °C 1014.3 hPa SSE 3.8 km/h 4.8 km/h 55.3% 0.0 mm 0 W/m2
00:29 20.9 °C 11.6 °C 1014.3 hPa SSE 4.5 km/h 4.8 km/h 55% 0.0 mm 0 W/m2
00:34 20.9 °C 11.6 °C 1014.3 hPa SSE 3.7 km/h 4.8 km/h 55% 0.0 mm 0 W/m2
00:39 20.9 °C 11.6 °C 1014.3 hPa SSE 3.6 km/h 4.8 km/h 55% 0.0 mm 0 W/m2
00:44 20.9 °C 11.8 °C 1014.3 hPa SSE 2.2 km/h 4.8 km/h 55.8% 0.0 mm 0 W/m2
00:49 20.9 °C 11.8 °C 1014.2 hPa SSE 3.7 km/h 3.2 km/h 56% 0.0 mm 0 W/m2
00:54 21 °C 11.9 °C 1014.2 hPa SSE 3 km/h 4.8 km/h 56.3% 0.0 mm 0 W/m2
00:59 20.9 °C 12.1 °C 1014.2 hPa SSE 1.9 km/h 3.2 km/h 57% 0.0 mm 0 W/m2
01:04 20.8 °C 12.2 °C 1014.1 hPa SSE 1.1 km/h 1.6 km/h 57.9% 0.0 mm 0 W/m2
01:09 20.5 °C 12.3 °C 1014.1 hPa Calm   1.6 km/h 59.2% 0.0 mm 0 W/m2
01:14 20.2 °C 12.4 °C 1014.1 hPa Calm     60.6% 0.0 mm 0 W/m2
01:19 19.9 °C 12.4 °C 1014.1 hPa Calm     62% 0.0 mm 0 W/m2
01:24 19.7 °C 12.9 °C 1014.2 hPa Calm     64.5% 0.0 mm 0 W/m2
01:29 19.7 °C 12.6 °C 1014.2 hPa Calm     63.6% 0.0 mm 0 W/m2
01:34 19.7 °C 12.4 °C 1014.2 hPa SSE 1.4 km/h 1.6 km/h 62.4% 0.0 mm 0 W/m2
01:39 19.7 °C 12.5 °C 1014.2 hPa SE 4.5 km/h 4.8 km/h 63.3% 0.0 mm 0 W/m2
01:44 19.6 °C 12.7 °C 1014.2 hPa NE 4.7 km/h 6.4 km/h 64.6% 0.0 mm 0 W/m2
01:49 19.6 °C 12.4 °C 1014.2 hPa NNE 3.6 km/h 6.4 km/h 63.5% 0.0 mm 0 W/m2
01:54 19.6 °C 12.4 °C 1014.2 hPa NNE 0.7 km/h 4.8 km/h 63% 0.0 mm 0 W/m2
01:59 19.7 °C 12.5 °C 1014.2 hPa NNE 3.7 km/h 2.7 km/h 63.2% 0.0 mm 0 W/m2
02:04 19.6 °C 12.5 °C 1014.1 hPa NNE 4.3 km/h 4.8 km/h 63.5% 0.0 mm 0 W/m2
02:09 19.5 °C 12.5 °C 1014.0 hPa NNE 3.4 km/h 4.8 km/h 64% 0.0 mm 0 W/m2
02:14 19.5 °C 12.5 °C 1014.0 hPa NNE 3.3 km/h 3.2 km/h 64% 0.0 mm 0 W/m2
02:19 19.5 °C 12.5 °C 1014.0 hPa NNE 3.9 km/h 4.8 km/h 64.3% 0.0 mm 0 W/m2
02:24 19.4 °C 12.7 °C 1014.1 hPa NNE 3.4 km/h 4.8 km/h 65.1% 0.0 mm 0 W/m2
02:29 19.3 °C 12.9 °C 1014.1 hPa NNE 3.3 km/h 3.2 km/h 66.6% 0.0 mm 0 W/m2
02:34 19.2 °C 12.9 °C 1014.0 hPa NNE 4.9 km/h 4.2 km/h 67% 0.0 mm 0 W/m2
02:39 19.2 °C 12.7 °C 1014.0 hPa NNE 4.5 km/h 6.4 km/h 66.2% 0.0 mm 0 W/m2
02:44 19.2 °C 12.8 °C 1014.0 hPa NNE 3.4 km/h 4.8 km/h 66.5% 0.0 mm 0 W/m2
02:49 19.2 °C 12.8 °C 1014.0 hPa NNE 3.8 km/h 3.2 km/h 66.5% 0.0 mm 0 W/m2
02:54 19.2 °C 12.7 °C 1013.9 hPa NNE 1.2 km/h 4.8 km/h 66% 0.0 mm 0 W/m2
02:59 19.2 °C 12.7 °C 1013.9 hPa Calm   1.6 km/h 66% 0.0 mm 0 W/m2
03:04 19.2 °C 12.7 °C 1013.9 hPa Calm     66% 0.0 mm 0 W/m2
03:09 19.2 °C 12.7 °C 1013.9 hPa Calm     66% 0.0 mm 0 W/m2
03:14 19.2 °C 12.7 °C 1013.8 hPa Calm     65.7% 0.0 mm 0 W/m2
03:19 19.3 °C 12.6 °C 1013.8 hPa Calm     65% 0.0 mm 0 W/m2
03:24 19.3 °C 12.6 °C 1013.8 hPa Calm     65% 0.0 mm 0 W/m2
03:29 19.3 °C 12.6 °C 1013.7 hPa Calm     65.3% 0.0 mm 0 W/m2
03:34 19.3 °C 12.6 °C 1013.7 hPa Calm     65% 0.0 mm 0 W/m2
03:39 19.3 °C 12.6 °C 1013.6 hPa Calm     65% 0.0 mm 0 W/m2
03:44 19.3 °C 12.6 °C 1013.6 hPa Calm     65% 0.0 mm 0 W/m2
03:49 19.3 °C 12.6 °C 1013.6 hPa Calm     65% 0.0 mm 0 W/m2
03:54 19.3 °C 12.6 °C 1013.6 hPa Calm     65% 0.0 mm 0 W/m2
03:59 19.3 °C 12.5 °C 1013.6 hPa Calm     64.7% 0.0 mm 0 W/m2
04:04 19.3 °C 12.7 °C 1013.6 hPa Calm     65.5% 0.0 mm 0 W/m2
04:09 19.2 °C 12.8 °C 1013.6 hPa Calm     66.4% 0.0 mm 0 W/m2
04:14 19.2 °C 12.5 °C 1013.6 hPa Calm     65.3% 0.0 mm 0 W/m2
04:19 19.2 °C 12.5 °C 1013.5 hPa Calm     65% 0.0 mm 0 W/m2
04:24 19.2 °C 12.5 °C 1013.5 hPa Calm     65% 0.0 mm 0 W/m2
04:29 19.2 °C 12.5 °C 1013.4 hPa Calm     65.3% 0.0 mm 0 W/m2
04:34 19.2 °C 12.6 °C 1013.4 hPa Calm     65.6% 0.0 mm 0 W/m2
04:39 19.2 °C 12.7 °C 1013.4 hPa Calm     66% 0.0 mm 0 W/m2
04:44 19.1 °C 12.6 °C 1013.4 hPa Calm     66% 0.0 mm 0 W/m2
04:48 19.2 °C 12.6 °C 1013.4 hPa Calm     65.4% 0.0 mm 0 W/m2
04:54 19.3 °C 12.7 °C 1013.4 hPa Calm     65.6% 0.0 mm 0 W/m2
04:59 19.3 °C 12.7 °C 1013.4 hPa Calm     65.7% 0.0 mm 0 W/m2
05:04 19.3 °C 12.6 °C 1013.3 hPa Calm     65.5% 0.0 mm 0 W/m2
05:09 19.1 °C 13.1 °C 1013.3 hPa Calm     68.3% 0.0 mm 0 W/m2
05:14 19 °C 12.9 °C 1013.3 hPa Calm     67.8% 0.0 mm 0 W/m2
05:19 19 °C 12.8 °C 1013.3 hPa Calm     67.2% 0.0 mm 0 W/m2
05:24 18.9 °C 12.8 °C 1013.3 hPa NNE 0.5 km/h 0.2 km/h 67.7% 0.0 mm 0 W/m2
05:29 18.8 °C 12.9 °C 1013.3 hPa NNE 0.9 km/h 3.2 km/h 68.8% 0.0 mm 0 W/m2
05:34 18.7 °C 13 °C 1013.2 hPa Calm   1.6 km/h 69.6% 0.0 mm 0 W/m2
05:39 18.7 °C 12.9 °C 1013.2 hPa Calm     69.1% 0.0 mm 0 W/m2
05:44 18.6 °C 12.9 °C 1013.2 hPa Calm     69% 0.0 mm 7 W/m2
05:49 18.6 °C 12.7 °C 1013.2 hPa Calm     68.4% 0.0 mm 11 W/m2
05:54 18.7 °C 12.6 °C 1013.2 hPa NNE 0.6 km/h   67.9% 0.0 mm 14 W/m2
05:59 18.8 °C 12.6 °C 1013.1 hPa Calm   1.6 km/h 67.5% 0.0 mm 18 W/m2
06:04 18.8 °C 12.5 °C 1013.2 hPa Calm     67.2% 0.0 mm 21 W/m2
06:09 18.5 °C 12.6 °C 1013.2 hPa Calm     68.4% 0.0 mm 28 W/m2
06:14 18.5 °C 12.5 °C 1013.2 hPa Calm     68.2% 0.0 mm 35 W/m2
06:19 18.6 °C 12.6 °C 1013.2 hPa Calm     68% 0.0 mm 46 W/m2
06:24 18.7 °C 12.7 °C 1013.2 hPa Calm     68% 0.0 mm 53 W/m2
06:29 18.8 °C 12.8 °C 1013.2 hPa Calm     68% 0.0 mm 63 W/m2
06:34 19 °C 12.9 °C 1013.2 hPa Calm     68% 0.0 mm 72 W/m2
06:39 19.1 °C 13 °C 1013.2 hPa Calm     68% 0.0 mm 79 W/m2
06:43 19.1 °C 13.1 °C 1013.2 hPa Calm     68% 0.0 mm 79 W/m2
06:49 19.2 °C 13.2 °C 1013.1 hPa NNE 0.9 km/h 1.3 km/h 68.3% 0.0 mm 88 W/m2
06:54 19 °C 13.4 °C 1013.1 hPa NNE 1.1 km/h 3.2 km/h 70.2% 0.0 mm 97 W/m2
06:58 18.9 °C 13.5 °C 1013.1 hPa NNE 3.1 km/h 3.2 km/h 71% 0.0 mm 100 W/m2
07:04 18.8 °C 13.4 °C 1013.1 hPa NNE 2.1 km/h 3.2 km/h 71% 0.0 mm 93 W/m2
07:09 18.9 °C 13.5 °C 1013.1 hPa NNE 2.1 km/h 3.2 km/h 71% 0.0 mm 144 W/m2
07:14 19 °C 13.5 °C 1013.0 hPa NNE 2.5 km/h 3.2 km/h 70.5% 0.0 mm 149 W/m2
07:19 19.1 °C 13.5 °C 1013.0 hPa NNE 1.9 km/h 3.2 km/h 70% 0.0 mm 158 W/m2
07:24 19.2 °C 13.4 °C 1013.0 hPa NNE 3 km/h 3.2 km/h 69.2% 0.0 mm 179 W/m2
07:29 19.3 °C 13.4 °C 1013.0 hPa NNE 0.3 km/h 3.2 km/h 68.3% 0.0 mm 179 W/m2
07:34 19.5 °C 13.6 °C 1013.0 hPa NNE 0.3 km/h 1.6 km/h 69% 0.0 mm 160 W/m2
07:39 19.5 °C 13.8 °C 1013.0 hPa NNE 3.3 km/h 3.2 km/h 69.5% 0.0 mm 200 W/m2
07:44 19.4 °C 14 °C 1012.9 hPa NNE 4.9 km/h 4.8 km/h 71% 0.0 mm 218 W/m2
07:49 19.2 °C 13.9 °C 1013.0 hPa NNE 4.6 km/h 4.8 km/h 71.3% 0.0 mm 230 W/m2
07:54 19.2 °C 13.5 °C 1012.9 hPa NNE 3.4 km/h 4.8 km/h 69.7% 0.0 mm 221 W/m2
07:59 19.3 °C 13.6 °C 1012.8 hPa NNE 3 km/h 3.2 km/h 69.2% 0.0 mm 227 W/m2
08:04 19.4 °C 13.6 °C 1012.9 hPa NNE 4.9 km/h 4.8 km/h 69% 0.0 mm 241 W/m2
08:09 19.5 °C 13.9 °C 1012.9 hPa NNE 4.8 km/h 4.8 km/h 69.7% 0.0 mm 264 W/m2
08:14 19.6 °C 13.7 °C 1012.9 hPa NNE 4.8 km/h 4.8 km/h 68.8% 0.0 mm 276 W/m2
08:19 19.7 °C 13.6 °C 1012.8 hPa NNE 4.7 km/h 4.8 km/h 68% 0.0 mm 276 W/m2
08:24 19.7 °C 13.6 °C 1012.7 hPa NNE 3.2 km/h 4.8 km/h 67.7% 0.0 mm 193 W/m2
08:29 19.7 °C 13.4 °C 1012.7 hPa NNE 3.3 km/h 3.2 km/h 67% 0.0 mm 313 W/m2
08:34 19.8 °C 13.4 °C 1012.7 hPa NNE 2.1 km/h 3.2 km/h 66.6% 0.0 mm 343 W/m2
08:39 20.2 °C 13.7 °C 1012.8 hPa NNE 1.4 km/h 1.6 km/h 66% 0.0 mm 360 W/m2
08:44 20.7 °C 13.8 °C 1012.8 hPa NNE 1.5 km/h 3.2 km/h 64.8% 0.0 mm 352 W/m2
08:49 20.9 °C 13.9 °C 1012.7 hPa NNE 2.6 km/h 2.1 km/h 64.1% 0.0 mm 417 W/m2
08:54 21 °C 13.8 °C 1012.7 hPa NNE 3.4 km/h 3.2 km/h 63.7% 0.0 mm 418 W/m2
08:59 21.2 °C 13.9 °C 1012.6 hPa NNE 1.8 km/h 3.2 km/h 63.2% 0.0 mm 408 W/m2
09:04 21.5 °C 13.5 °C 1012.6 hPa NW 2.9 km/h 5 km/h 60.7% 0.0 mm 380 W/m2
09:09 21.7 °C 12.7 °C 1012.6 hPa WNW 5.9 km/h 6.4 km/h 56.7% 0.0 mm 397 W/m2
09:14 21.8 °C 13.3 °C 1012.6 hPa West 6.6 km/h 6.9 km/h 58.5% 0.0 mm 413 W/m2
09:19 21.8 °C 13.5 °C 1012.6 hPa WNW 5.5 km/h 8 km/h 59.3% 0.0 mm 411 W/m2
09:24 21.9 °C 13.8 °C 1012.6 hPa WNW 6.2 km/h 6.4 km/h 60% 0.0 mm 429 W/m2
09:29 22 °C 14.1 °C 1012.6 hPa WNW 5.2 km/h 8 km/h 60.8% 0.0 mm 448 W/m2
09:34 22.1 °C 14.6 °C 1012.5 hPa West 5.3 km/h 8 km/h 62.3% 0.0 mm 468 W/m2
09:39 22.2 °C 14.9 °C 1012.5 hPa WNW 5.2 km/h 4.8 km/h 63% 0.0 mm 496 W/m2
09:44 22.3 °C 14.7 °C 1012.5 hPa WSW 6.8 km/h 9 km/h 62.3% 0.0 mm 519 W/m2
09:49 22.3 °C 13.7 °C 1012.5 hPa WSW 6.9 km/h 11.3 km/h 58.3% 0.0 mm 552 W/m2
09:54 22.3 °C 14 °C 1012.5 hPa West 7.4 km/h 8 km/h 59.4% 0.0 mm 555 W/m2
09:59 22.4 °C 14 °C 1012.5 hPa SW 8.3 km/h 9.7 km/h 58.9% 0.0 mm 601 W/m2
10:04 22.7 °C 14.1 °C 1012.4 hPa SSW 6.6 km/h 11.3 km/h 58.5% 0.0 mm 615 W/m2
10:09 22.7 °C 14.2 °C 1012.4 hPa WSW 9 km/h 9.7 km/h 58.8% 0.0 mm 617 W/m2
10:14 22.8 °C 14.2 °C 1012.4 hPa West 7.5 km/h 11.3 km/h 58.4% 0.0 mm 626 W/m2
10:19 23.1 °C 14.4 °C 1012.4 hPa West 7.2 km/h 8 km/h 58.2% 0.0 mm 636 W/m2
10:24 23.1 °C 14.6 °C 1012.3 hPa West 8 km/h 8 km/h 58.8% 0.0 mm 652 W/m2
10:29 23.3 °C 14.3 °C 1012.2 hPa WSW 9.7 km/h 11.3 km/h 57.1% 0.0 mm 679 W/m2
10:34 23.6 °C 14.2 °C 1012.1 hPa SW 10.5 km/h 16.1 km/h 55.5% 0.0 mm 686 W/m2
10:39 23.6 °C 14 °C 1012.1 hPa SW 11.2 km/h 14.5 km/h 54.8% 0.0 mm 694 W/m2
10:44 23.7 °C 14.3 °C 1012.1 hPa SW 10.4 km/h 16.1 km/h 55.6% 0.0 mm 710 W/m2
10:49 24 °C 14.5 °C 1012.1 hPa SW 8.4 km/h 12.9 km/h 55.2% 0.0 mm 715 W/m2
10:54 24.1 °C 14.2 °C 1012.1 hPa SW 10.9 km/h 12.9 km/h 54% 0.0 mm 724 W/m2
10:59 24.2 °C 14.3 °C 1012.0 hPa WSW 12.1 km/h 14.5 km/h 54% 0.0 mm 745 W/m2
11:04 24.2 °C 14.6 °C 1012.0 hPa SW 10.6 km/h 16.1 km/h 54.8% 0.0 mm 751 W/m2
11:09 24.4 °C 14.6 °C 1012.0 hPa WSW 11.5 km/h 12.9 km/h 54.6% 0.0 mm 758 W/m2
11:14 24.4 °C 14.7 °C 1011.9 hPa West 11 km/h 16.1 km/h 54.8% 0.0 mm 775 W/m2
11:19 24.4 °C 14.5 °C 1011.9 hPa West 11.2 km/h 14.5 km/h 54.3% 0.0 mm 782 W/m2
11:24 24.4 °C 14.6 °C 1011.9 hPa SW 7.9 km/h 12.9 km/h 54.4% 0.0 mm 782 W/m2
11:29 24.4 °C 14.5 °C 1011.8 hPa West 10.2 km/h 14.5 km/h 54.2% 0.0 mm 803 W/m2
11:34 24.8 °C 15.1 °C 1011.6 hPa West 8.8 km/h 12.9 km/h 55% 0.0 mm 803 W/m2
11:39 25 °C 15.2 °C 1011.6 hPa SW 6.8 km/h 11.3 km/h 54.4% 0.0 mm 810 W/m2
11:44 25.1 °C 15 °C 1011.6 hPa SW 10.2 km/h 11.3 km/h 53.5% 0.0 mm 824 W/m2
11:48 25.1 °C 14.5 °C 1011.6 hPa WNW 9 km/h 16.1 km/h 51.8% 0.0 mm 833 W/m2
11:54 25.2 °C 14.4 °C 1011.6 hPa WSW 8.9 km/h 11.3 km/h 51.3% 0.0 mm 837 W/m2
11:59 25.3 °C 14.8 °C 1011.5 hPa NNW 7.6 km/h 12.9 km/h 52.2% 0.0 mm 837 W/m2
12:04 25.6 °C 14.6 °C 1011.4 hPa WNW 10.2 km/h 9.7 km/h 50.7% 0.0 mm 851 W/m2
12:09 25.6 °C 14.4 °C 1011.2 hPa West 11.6 km/h 14.5 km/h 50% 0.0 mm 856 W/m2
12:14 25.6 °C 14.4 °C 1011.1 hPa West 12.2 km/h 16.1 km/h 49.8% 0.0 mm 868 W/m2
12:19 25.8 °C 14.2 °C 1011.0 hPa West 12 km/h 16.1 km/h 48.8% 0.0 mm 868 W/m2
12:24 26 °C 14.5 °C 1011.0 hPa WSW 11.6 km/h 12.9 km/h 49.1% 0.0 mm 854 W/m2
12:29 26.2 °C 14.6 °C 1011.0 hPa WSW 13.3 km/h 16.1 km/h 48.7% 0.0 mm 847 W/m2
12:34 26.1 °C 14.3 °C 1010.9 hPa SW 11.3 km/h 16.1 km/h 48.2% 0.0 mm 858 W/m2
12:39 26.2 °C 14.2 °C 1010.9 hPa WSW 14 km/h 14.5 km/h 47.6% 0.0 mm 875 W/m2
12:44 26.3 °C 14.4 °C 1010.9 hPa WNW 11.7 km/h 14.5 km/h 48.2% 0.0 mm 886 W/m2
12:49 26.5 °C 14.3 °C 1010.8 hPa WSW 13.8 km/h 14.5 km/h 47.2% 0.0 mm 895 W/m2
12:54 26.7 °C 14.2 °C 1010.7 hPa WSW 15.5 km/h 19.3 km/h 46.1% 0.0 mm 912 W/m2
12:59 26.7 °C 14.4 °C 1010.8 hPa WSW 13.9 km/h 16.1 km/h 46.8% 0.0 mm 923 W/m2
13:04 26.8 °C 14.3 °C 1010.8 hPa WSW 11.9 km/h 16.1 km/h 46.2% 0.0 mm 918 W/m2
13:09 26.8 °C 14.5 °C 1010.6 hPa WSW 14.1 km/h 16.1 km/h 46.9% 0.0 mm 909 W/m2
13:14 26.9 °C 14.5 °C 1010.4 hPa West 12.3 km/h 19.3 km/h 46.8% 0.0 mm 923 W/m2
13:19 26.9 °C 14.5 °C 1010.4 hPa NW 11 km/h 14.5 km/h 46.6% 0.0 mm 923 W/m2
13:24 26.9 °C 14.6 °C 1010.3 hPa WSW 10.8 km/h 16.1 km/h 46.9% 0.0 mm 935 W/m2
13:29 27.4 °C 14.4 °C 1010.3 hPa WSW 14.2 km/h 16.1 km/h 45.2% 0.0 mm 937 W/m2
13:34 27.1 °C 14 °C 1010.3 hPa WSW 13 km/h 19.3 km/h 44.6% 0.0 mm 937 W/m2
13:39 26.8 °C 13.8 °C 1010.3 hPa West 14.1 km/h 16.1 km/h 44.8% 0.0 mm 951 W/m2
13:44 26.7 °C 13.8 °C 1010.3 hPa WNW 16 km/h 19.3 km/h 45% 0.0 mm 935 W/m2
13:49 26.9 °C 13.9 °C 1010.2 hPa WSW 13.7 km/h 19.3 km/h 45% 0.0 mm 940 W/m2
13:54 27.3 °C 13.7 °C 1010.2 hPa WNW 16.9 km/h 16.1 km/h 43.3% 0.0 mm 937 W/m2
13:59 27.5 °C 13.1 °C 1010.1 hPa West 16.4 km/h 22.5 km/h 41% 0.0 mm 946 W/m2
14:04 27.4 °C 12.9 °C 1010.1 hPa West 15.5 km/h 22.5 km/h 41% 0.0 mm 953 W/m2
14:09 27.2 °C 12.9 °C 1010.0 hPa WSW 12.7 km/h 19.3 km/h 41.3% 0.0 mm 925 W/m2
14:14 27.4 °C 12.6 °C 1009.9 hPa WNW 12.9 km/h 12.9 km/h 40% 0.0 mm 912 W/m2
14:19 27.6 °C 12.4 °C 1009.9 hPa West 16.2 km/h 19.3 km/h 39.2% 0.0 mm 919 W/m2
14:24 27.7 °C 12.2 °C 1009.8 hPa West 15.9 km/h 19.3 km/h 38.2% 0.0 mm 911 W/m2
14:29 27.9 °C 12.2 °C 1009.8 hPa WSW 16.7 km/h 20.9 km/h 37.8% 0.0 mm 909 W/m2
14:34 27.9 °C 12 °C 1009.7 hPa WSW 13.8 km/h 24.1 km/h 37.3% 0.0 mm 902 W/m2
14:39 27.8 °C 11.8 °C 1009.7 hPa WNW 12.2 km/h 19.3 km/h 37.2% 0.0 mm 896 W/m2
14:44 27.9 °C 11.7 °C 1009.6 hPa WSW 10.9 km/h 16.1 km/h 36.8% 0.0 mm 895 W/m2
14:49 28.4 °C 12.5 °C 1009.5 hPa WSW 14.9 km/h 14.5 km/h 37.4% 0.0 mm 888 W/m2
14:54 28.3 °C 12.3 °C 1009.4 hPa WSW 18.2 km/h 20.9 km/h 37.3% 0.0 mm 879 W/m2
14:59 28 °C 12.1 °C 1009.4 hPa West 15.6 km/h 22.5 km/h 37.4% 0.0 mm 881 W/m2
15:04 28 °C 12.3 °C 1009.4 hPa WSW 14.4 km/h 19.3 km/h 37.7% 0.0 mm 872 W/m2
15:09 28.1 °C 11.9 °C 1009.3 hPa West 14.5 km/h 19.3 km/h 36.7% 0.0 mm 874 W/m2
15:14 28 °C 12.4 °C 1009.2 hPa WSW 12 km/h 16.1 km/h 38.2% 0.0 mm 853 W/m2
15:19 28.2 °C 12.7 °C 1009.0 hPa West 11.4 km/h 14.5 km/h 38.6% 0.0 mm 849 W/m2
15:24 28.4 °C 12.4 °C 1008.9 hPa West 15.8 km/h 14.5 km/h 37.2% 0.0 mm 840 W/m2
15:29 28.2 °C 11.6 °C 1008.9 hPa SW 10.2 km/h 19.3 km/h 35.8% 0.0 mm 840 W/m2
15:34 28.2 °C 12.2 °C 1008.7 hPa West 10.2 km/h 19.3 km/h 37.1% 0.0 mm 830 W/m2
15:39 28.5 °C 12.1 °C 1008.6 hPa West 16.4 km/h 19.3 km/h 36.3% 0.0 mm 828 W/m2
15:44 28.6 °C 12.1 °C 1008.6 hPa WNW 15.8 km/h 19.3 km/h 36.2% 0.0 mm 821 W/m2
15:49 28.4 °C 12.2 °C 1008.5 hPa West 15 km/h 19.3 km/h 36.8% 0.0 mm 812 W/m2
15:54 28.2 °C 11.8 °C 1008.3 hPa West 12.1 km/h 19.3 km/h 36.3% 0.0 mm 802 W/m2
15:59 28.2 °C 12 °C 1008.3 hPa West 16.1 km/h 19.3 km/h 36.6% 0.0 mm 795 W/m2
16:04 28.3 °C 11.9 °C 1008.2 hPa WNW 12 km/h 20.9 km/h 36.3% 0.0 mm 784 W/m2
16:09 28.4 °C 11.9 °C 1008.1 hPa West 12.9 km/h 12.9 km/h 35.9% 0.0 mm 779 W/m2
16:14 28.5 °C 11.7 °C 1008.2 hPa WSW 17.3 km/h 19.3 km/h 35.4% 0.0 mm 786 W/m2
16:19 28.5 °C 11.7 °C 1008.2 hPa West 16 km/h 24.1 km/h 35.3% 0.0 mm 800 W/m2
16:24 28.5 °C 12 °C 1008.2 hPa WNW 11.2 km/h 16.1 km/h 36.1% 0.0 mm 810 W/m2
16:29 28.4 °C 12.1 °C 1008.2 hPa West 16.6 km/h 18.3 km/h 36.4% 0.0 mm 816 W/m2
16:34 28.8 °C 12 °C 1008.3 hPa WSW 13.3 km/h 24.1 km/h 35.3% 0.0 mm 846 W/m2
16:38 28.8 °C 12 °C 1008.2 hPa NW 9.2 km/h 16.1 km/h 35.4% 0.0 mm 893 W/m2
16:44 28.7 °C 12.1 °C 1008.2 hPa WNW 7.8 km/h 11.3 km/h 36% 0.0 mm 874 W/m2
16:49 28.6 °C 11.7 °C 1008.1 hPa WNW 9.3 km/h 11.3 km/h 35.2% 0.0 mm 279 W/m2
16:53 28.4 °C 11.6 °C 1008.2 hPa West 9.7 km/h 14.5 km/h 35.2% 0.0 mm 251 W/m2
16:59 28.2 °C 11.5 °C 1008.1 hPa West 3.9 km/h 14.5 km/h 35.4% 0.0 mm 255 W/m2
17:04 28.1 °C 11.7 °C 1008.0 hPa NW 8.6 km/h 10.8 km/h 36.2% 0.0 mm 308 W/m2
17:09 28.1 °C 11.9 °C 1007.9 hPa WNW 11.4 km/h 12.9 km/h 36.6% 0.0 mm 397 W/m2
Lodi Weather
Compliments of Weather Underground - 3 mb